createdAt,value
2019-03-21T00:00:31.911Z,101990
2019-03-21T00:05:31.911Z,101997
2019-03-21T00:10:31.902Z,101991
2019-03-21T00:15:31.926Z,101999
2019-03-21T00:20:31.903Z,101974
2019-03-21T00:25:31.903Z,101979
2019-03-21T00:30:31.933Z,101975
2019-03-21T00:35:31.909Z,101966
2019-03-21T00:40:31.920Z,101970
2019-03-21T00:45:31.929Z,101969
2019-03-21T00:50:31.918Z,101977
2019-03-21T00:55:31.922Z,101981
2019-03-21T01:00:31.940Z,101976
2019-03-21T01:05:31.942Z,101968
2019-03-21T01:10:31.936Z,101954
2019-03-21T01:15:31.945Z,101963
2019-03-21T01:20:31.930Z,101951
2019-03-21T01:25:31.952Z,101950
2019-03-21T01:30:31.964Z,101959
2019-03-21T01:35:31.931Z,101951
2019-03-21T01:40:31.946Z,101941
2019-03-21T01:45:31.983Z,101936
2019-03-21T01:50:31.964Z,101932
2019-03-21T01:55:31.947Z,101933
2019-03-21T02:00:31.957Z,101934
2019-03-21T02:05:31.989Z,101910
2019-03-21T02:10:31.956Z,101921
2019-03-21T02:15:31.988Z,101919
2019-03-21T02:20:31.976Z,101906
2019-03-21T02:25:31.968Z,101905
2019-03-21T02:30:31.974Z,101901
2019-03-21T02:35:31.967Z,101905
2019-03-21T02:40:31.962Z,101905
2019-03-21T02:45:32.023Z,101909
2019-03-21T02:50:31.977Z,101898
2019-03-21T02:55:31.976Z,101901
2019-03-21T03:00:31.997Z,101901
2019-03-21T03:05:31.990Z,101909
2019-03-21T03:10:31.973Z,101905
2019-03-21T03:15:32.006Z,101916
2019-03-21T03:20:31.983Z,101918
2019-03-21T03:25:32.000Z,101910
2019-03-21T03:30:32.017Z,101920
2019-03-21T03:35:32.000Z,101912
2019-03-21T03:40:32.002Z,101923
2019-03-21T03:45:37.666Z,101922
2019-03-21T03:50:32.012Z,101924
2019-03-21T03:55:32.009Z,101920
2019-03-21T04:00:32.009Z,101930
2019-03-21T04:05:32.000Z,101941
2019-03-21T04:10:32.010Z,101934
2019-03-21T04:15:32.032Z,101936
2019-03-21T04:20:32.020Z,101934
2019-03-21T04:25:32.012Z,101944
2019-03-21T04:30:32.044Z,101939
2019-03-21T04:35:32.031Z,101934
2019-03-21T04:40:32.038Z,101942
2019-03-21T04:45:32.048Z,101940
2019-03-21T04:50:32.035Z,101941
2019-03-21T04:55:32.046Z,101944
2019-03-21T05:00:32.046Z,101946
2019-03-21T05:05:32.037Z,101952
2019-03-21T05:10:32.025Z,101948
2019-03-21T05:15:32.072Z,101964
2019-03-21T05:20:32.039Z,101963
2019-03-21T05:25:32.044Z,101971
2019-03-21T05:30:32.058Z,101979
2019-03-21T05:35:32.036Z,101969
2019-03-21T05:40:32.044Z,101964
2019-03-21T05:45:32.083Z,101974
2019-03-21T05:50:32.069Z,101972
2019-03-21T05:55:32.064Z,101985
2019-03-21T06:00:32.073Z,101984
2019-03-21T06:05:32.074Z,101993
2019-03-21T06:10:32.081Z,102006
2019-03-21T06:15:32.074Z,102011
2019-03-21T06:20:32.073Z,102005
2019-03-21T06:25:32.078Z,102006
2019-03-21T06:30:32.113Z,102001
2019-03-21T06:35:32.070Z,102012
2019-03-21T06:40:32.070Z,102014
2019-03-21T06:45:32.092Z,102010
2019-03-21T06:50:32.068Z,102004
2019-03-21T06:55:32.085Z,102007
2019-03-21T07:00:32.125Z,102002
2019-03-21T07:05:32.078Z,101997
2019-03-21T07:10:32.086Z,102000
2019-03-21T07:15:32.106Z,102003
2019-03-21T07:20:32.095Z,102017
2019-03-21T07:25:32.091Z,102014
2019-03-21T07:30:32.093Z,102004
2019-03-21T07:35:32.092Z,102009
2019-03-21T07:40:32.095Z,102013
2019-03-21T07:45:32.110Z,102010
2019-03-21T07:50:32.099Z,102011
2019-03-21T07:55:32.112Z,102011
2019-03-21T08:00:32.098Z,102011
2019-03-21T08:05:40.029Z,102024
2019-03-21T08:10:32.136Z,102019
2019-03-21T08:15:32.162Z,102025
2019-03-21T08:20:32.115Z,102019
2019-03-21T08:25:32.113Z,102031
2019-03-21T08:30:32.126Z,102023
2019-03-21T08:35:32.127Z,102031
2019-03-21T08:40:32.115Z,102045
2019-03-21T08:45:32.123Z,102038
2019-03-21T08:50:32.126Z,102045
2019-03-21T08:55:32.232Z,102046
2019-03-21T09:00:34.225Z,102047
2019-03-21T09:05:32.127Z,102037
2019-03-21T09:10:34.304Z,102041
2019-03-21T09:15:32.131Z,102037
2019-03-21T09:20:32.161Z,102036
2019-03-21T09:25:32.141Z,102037
2019-03-21T09:30:32.149Z,102035
2019-03-21T09:35:32.148Z,102039
2019-03-21T09:40:32.183Z,102031
2019-03-21T09:45:32.184Z,102035
2019-03-21T09:50:32.178Z,102034
2019-03-21T09:55:32.177Z,102030
2019-03-21T10:00:32.188Z,102024
2019-03-21T10:05:32.182Z,102026
2019-03-21T10:10:32.183Z,102029
2019-03-21T10:15:32.198Z,102028
2019-03-21T10:20:32.172Z,102025
2019-03-21T10:25:32.171Z,102023
2019-03-21T10:30:32.186Z,102012
2019-03-21T10:35:32.714Z,102020
2019-03-21T10:40:32.166Z,102018
2019-03-21T10:45:32.172Z,102013
2019-03-21T10:50:32.189Z,102004
2019-03-21T10:55:32.195Z,102011
2019-03-21T11:00:32.218Z,101995
2019-03-21T11:05:32.217Z,101991
2019-03-21T11:10:32.184Z,101990
2019-03-21T11:15:32.188Z,101988
2019-03-21T11:20:32.200Z,101988
2019-03-21T11:25:32.193Z,101980
2019-03-21T11:30:32.225Z,101982
2019-03-21T11:35:32.201Z,101968
2019-03-21T11:40:32.195Z,101971
2019-03-21T11:45:32.231Z,101960
2019-03-21T11:50:32.222Z,101945
2019-03-21T11:55:32.237Z,101942
2019-03-21T12:00:42.518Z,101945
2019-03-21T12:05:32.223Z,101940
2019-03-21T12:10:32.220Z,101921
2019-03-21T12:15:32.243Z,101928
2019-03-21T12:20:32.223Z,101925
2019-03-21T12:25:32.216Z,101923
2019-03-21T12:30:32.263Z,101921
2019-03-21T12:35:32.227Z,101917
2019-03-21T12:40:32.225Z,101909
2019-03-21T12:45:32.226Z,101905
2019-03-21T12:50:32.242Z,101904
2019-03-21T12:55:32.247Z,101896
2019-03-21T13:00:32.277Z,101887
2019-03-21T13:05:32.241Z,101873
2019-03-21T13:10:32.235Z,101865
2019-03-21T13:15:32.272Z,101864
2019-03-21T13:20:32.247Z,101865
2019-03-21T13:25:32.249Z,101846
2019-03-21T13:30:32.259Z,101852
2019-03-21T13:35:33.184Z,101845
2019-03-21T13:40:32.248Z,101836
2019-03-21T13:45:32.245Z,101836
2019-03-21T13:50:32.261Z,101827
2019-03-21T13:55:32.258Z,101827
2019-03-21T14:00:32.265Z,101821
2019-03-21T14:05:32.274Z,101814
2019-03-21T14:10:32.448Z,101804
2019-03-21T14:15:32.272Z,101795
2019-03-21T14:20:32.279Z,101803
2019-03-21T14:25:32.280Z,101786
2019-03-21T14:30:32.275Z,101798
2019-03-21T14:35:32.281Z,101783
2019-03-21T14:40:32.295Z,101782
2019-03-21T14:45:32.334Z,101775
2019-03-21T14:50:32.295Z,101782
2019-03-21T14:55:32.285Z,101785
2019-03-21T15:00:32.309Z,101775
2019-03-21T15:05:32.284Z,101774
2019-03-21T15:10:32.299Z,101775
2019-03-21T15:15:32.441Z,101782
2019-03-21T15:20:32.303Z,101775
2019-03-21T15:25:32.338Z,101770
2019-03-21T15:30:32.291Z,101766
2019-03-21T15:35:32.322Z,101768
2019-03-21T15:40:32.305Z,101768
2019-03-21T15:45:32.308Z,101766
2019-03-21T15:50:32.317Z,101750
2019-03-21T15:55:32.306Z,101750
2019-03-21T16:00:32.330Z,101748
2019-03-21T16:05:32.317Z,101759
2019-03-21T16:10:32.319Z,101758
2019-03-21T16:15:32.355Z,101755
2019-03-21T16:20:32.338Z,101754
2019-03-21T16:25:32.351Z,101755
2019-03-21T16:30:32.362Z,101748
2019-03-21T16:35:32.365Z,101740
2019-03-21T16:40:32.325Z,101738
2019-03-21T16:45:32.334Z,101754
2019-03-21T16:50:32.335Z,101743
2019-03-21T16:55:32.347Z,101750
2019-03-21T17:00:32.341Z,101745
2019-03-21T17:05:32.355Z,101750
2019-03-21T17:10:32.364Z,101753
2019-03-21T17:15:32.351Z,101756
2019-03-21T17:20:32.341Z,101750
2019-03-21T17:25:32.346Z,101746
2019-03-21T17:30:32.399Z,101760
2019-03-21T17:35:32.365Z,101759
2019-03-21T17:40:32.362Z,101765
2019-03-21T17:45:32.361Z,101757
2019-03-21T17:50:32.366Z,101768
2019-03-21T17:55:32.362Z,101770
2019-03-21T18:00:32.386Z,101768
2019-03-21T18:05:32.365Z,101777
2019-03-21T18:10:32.370Z,101783
2019-03-21T18:15:32.390Z,101790
2019-03-21T18:20:32.382Z,101793
2019-03-21T18:25:32.460Z,101794
2019-03-21T18:30:32.397Z,101794
2019-03-21T18:35:32.417Z,101803
2019-03-21T18:40:32.398Z,101799
2019-03-21T18:45:32.416Z,101806
2019-03-21T18:50:32.413Z,101802
2019-03-21T18:55:32.392Z,101801
2019-03-21T19:00:32.427Z,101803
2019-03-21T19:05:32.402Z,101802
2019-03-21T19:10:32.393Z,101809
2019-03-21T19:15:32.447Z,101807
2019-03-21T19:20:32.404Z,101799
2019-03-21T19:25:32.406Z,101805
2019-03-21T19:30:32.521Z,101811
2019-03-21T19:35:32.410Z,101810
2019-03-21T19:40:32.438Z,101806
2019-03-21T19:45:32.427Z,101805
2019-03-21T19:50:32.478Z,101799
2019-03-21T19:55:32.417Z,101799
2019-03-21T20:00:32.428Z,101807
2019-03-21T20:05:32.454Z,101808
2019-03-21T20:10:32.428Z,101817
2019-03-21T20:15:32.456Z,101811
2019-03-21T20:20:32.433Z,101813
2019-03-21T20:25:42.186Z,101805
2019-03-21T20:30:32.437Z,101806
2019-03-21T20:35:32.458Z,101811
2019-03-21T20:40:32.446Z,101824
2019-03-21T20:45:32.471Z,101808
2019-03-21T20:50:32.446Z,101808
2019-03-21T20:55:32.444Z,101804
2019-03-21T21:00:32.448Z,101797
2019-03-21T21:05:32.449Z,101795
2019-03-21T21:10:32.449Z,101798
2019-03-21T21:15:32.470Z,101792
2019-03-21T21:20:32.457Z,101806
2019-03-21T21:25:32.459Z,101807
2019-03-21T21:30:32.468Z,101806
2019-03-21T21:35:32.459Z,101813
2019-03-21T21:40:32.702Z,101818
2019-03-21T21:45:32.466Z,101818
2019-03-21T21:50:32.506Z,101816
2019-03-21T21:55:32.470Z,101815
2019-03-21T22:00:32.484Z,101817
2019-03-21T22:05:32.501Z,101797
2019-03-21T22:10:32.476Z,101809
2019-03-21T22:15:32.515Z,101810
2019-03-21T22:20:32.547Z,101823
2019-03-21T22:25:32.487Z,101826
2019-03-21T22:30:32.493Z,101833
2019-03-21T22:35:32.483Z,101827
2019-03-21T22:40:32.513Z,101821
2019-03-21T22:45:32.505Z,101836
2019-03-21T22:50:32.503Z,101816
2019-03-21T22:55:32.517Z,101824
2019-03-21T23:00:32.498Z,101814
2019-03-21T23:05:32.494Z,101812
2019-03-21T23:10:32.497Z,101816
2019-03-21T23:15:32.536Z,101814
2019-03-21T23:20:32.494Z,101821
2019-03-21T23:25:32.510Z,101809
2019-03-21T23:30:33.476Z,101805
2019-03-21T23:35:32.515Z,101803
2019-03-21T23:40:32.517Z,101809
2019-03-21T23:45:32.549Z,101796
2019-03-21T23:50:32.527Z,101807
2019-03-21T23:55:32.545Z,101802
